• Join FlightAware (Why Join?)
  • Login
  • US Flag 
05:00AM EDT


 

Airport Tracker/Info


-or-


 

Live Flight TrackerFlight Track Log ✈ XA-PBT ✈ 21-Apr-2013 ✈ KSAT - MMAN / NTR

Flight Track Log - Related Links

Times and Time Zones

All times are in EDT time to prevent confusion due to time zone crossing. See the XA-PBT flight status page for this flight to view local times or setup timezone preferences in your user account.

Time Position Orientation Groundspeed Altitude Reporting Facility
EDT Latitude Longitude Course Direction KTS MPH feet Rate Location/Type
06:12PM 29.5225 -98.4617 126° Southeast 172 198 1,700  Level Houston Center
06:12PM 29.5150 -98.4497 126° Southeast 192 221 2,500 3,720 Climbing Houston Center
06:13PM 29.4822 -98.4111 134° Southeast 201 231 5,900 3,360 Climbing Houston Center
06:14PM 29.4183 -98.4378 200° South 221 254 9,500 2,820 Climbing Houston Center
06:15PM 29.3475 -98.4894 212° Southwest 278 320 12,400 2,520 Climbing Houston Center
06:16PM 29.2717 -98.5367 209° Southwest 308 354 14,800 2,400 Climbing Houston Center
06:17PM 29.1842 -98.5894 208° Southwest 329 379 17,400 2,340 Climbing Houston Center
06:18PM 29.1003 -98.6381 207° Southwest 337 388 19,700 1,980 Climbing Houston Center
06:19PM 29.0017 -98.6861 203° Southwest 360 414 21,500 1,740 Climbing Houston Center
06:20PM 28.9025 -98.7272 200° South 379 436 23,300 1,680 Climbing Houston Center
06:22PM 28.7919 -98.7711 199° South 398 458 25,100 1,440 Climbing Houston Center
06:23PM 28.6869 -98.8150 200° South 403 464 26,400 1,140 Climbing Houston Center
06:24PM 28.5944 -98.8642 205° Southwest 412 474 27,500 720 Climbing Houston Center
06:25PM 28.4875 -98.9181 204° Southwest 418 481 28,000 240 Climbing Houston Center
06:26PM 28.3542 -98.9850 204° Southwest 434 499 28,000  Level Houston Center
06:27PM 28.2414 -99.0414 204° Southwest 442 509 28,000  Level Houston Center
06:28PM 28.1294 -99.0972 204° Southwest 442 509 28,000  Level Houston Center
06:29PM 28.0156 -99.1531 203° Southwest 445 512 28,000  Level Houston Center
06:30PM 27.9033 -99.2092 204° Southwest 445 512 28,000  Level Houston Center
06:31PM 27.7678 -99.2764 204° Southwest 446 513 28,000  Level Houston Center
06:32PM 27.6553 -99.3311 203° Southwest 445 512 28,000  Level Houston Center
06:33PM 27.5431 -99.3906 205° Southwest 449 517 28,000  Level Houston Center
06:34PM 27.4556 -99.4797 222° Southwest 428 493 28,000  Level Houston Center
06:35PM 27.3361 -99.5736 215° Southwest 436 502 28,000  Level Houston Center
06:36PM 27.2242 -99.6339 206° Southwest 445 512 28,000 -480 Level Houston Center
06:37PM 27.1039 -99.6744 197° South 452 520 27,100 -900 Descending Houston Center
06:39PM 26.9751 -99.7049 197° South  Level FlightAware Approximate
06:46PM 26.3782 -99.9016 195° South  Level FlightAware Approximate
06:47PM 26.2923 -99.9273 195° South  Level FlightAware Approximate
06:48PM 26.2066 -99.9534 197° South  Level FlightAware Approximate
06:49PM 26.1214 -99.9818 197° South  Level FlightAware Approximate
06:50PM 26.0362 -100.0102 197° South  Level FlightAware Approximate
06:51PM 25.9506 -100.0365 195° South  Level FlightAware Approximate
06:52PM 25.8647 -100.0623 195° South  Level FlightAware Approximate
06:53PM 25.7811 -100.0952 197° South  Level FlightAware Approximate
06:54PM 25.8139 -100.1630 310° West  Level FlightAware Approximate
06:55PM 25.8636 -100.2449 304° West  Level FlightAware Approximate
06:56PM 25.8667 -100.2500 304° West  Level FlightAware Approximate
06:57PM 25.8656 -100.2372 304° West  Level Estimated
06:58PM 25.8656 -100.2372 304° West  Level Estimated
06:59PM 25.8656 -100.2372 304° West  Level Estimated
07:00PM 25.8656 -100.2372 304° West  Level Estimated
07:01PM 25.8656 -100.2372 304° West  Level Estimated
07:02PM 25.8656 -100.2372 304° West  Level Estimated
07:03PM 25.8656 -100.2372 304° West  Level Estimated
07:04PM 25.8656 -100.2372 304° West  Level Estimated
07:05PM 25.8656 -100.2372 304° West  Level Estimated
07:06PM 25.8656 -100.2372 304° West  Level Estimated
07:07PM 25.8656 -100.2372 304° West  Level Estimated
07:08PM 25.8656 -100.2372 304° West  Level Estimated
07:09PM 25.8656 -100.2372 304° West  Level Estimated
07:10PM 25.8656 -100.2372 304° West  Level Estimated
07:11PM 25.8656 -100.2372 304° West  Level Estimated
07:12PM 25.8656 -100.2372 304° West  Level Estimated
07:13PM 25.8656 -100.2372 304° West  Level Estimated
07:14PM 25.8656 -100.2372 304° West  Level Estimated
07:15PM 25.8656 -100.2372 304° West  Level Estimated
07:16PM 25.8656 -100.2372 304° West  Level Estimated
07:17PM 25.8656 -100.2372 304° West  Level Estimated
07:18PM 25.8656 -100.2372 304° West  Level Estimated